Terminal Aerodrome Forecast
Issued by NWS

Current Version | Previous Version | Text Only | Print | Product List | Glossary On
Versions: 1 2 3 4 5 6 7 8 9 10 11 12 13
000
FTUS41 KBTV 050927 AAA
TAFMSS
TAF AMD
KMSS 050927Z 0509/0606 VRB05KT P6SM SCT250
      TEMPO 0509/0513 1SM BR SKC
     FM051900 23006KT P6SM SKC=

USA.gov is the U.S. government's official web portal to all federal, state and local government web resources and services.